Time;durP1;ratioP1;P1;durP2;ratioP2;P2;SDS_P1;SDS_P2;PMS_P1;PMS_P2;Temp;Humidity;BMP_temperature;BMP_pressure;BME280_temperature;BME280_humidity;BME280_pressure;Samples;Min_cycle;Max_cycle;Signal;HPM_P1;HPM_P2
2021/04/07 00:00:49;;;;;;;5.15;2.00;;;;;;;;;;4992628;28;20023;-73
2021/04/07 00:03:15;;;;;;;3.95;1.88;;;;;;;;;;4991432;28;20061;-73
2021/04/07 00:05:45;;;;;;;5.15;2.20;;;;;;;;;;4992911;28;20026;-73
2021/04/07 00:08:15;;;;;;;4.18;1.70;;;;;;;;;;4975211;28;20041;-80
2021/04/07 00:10:43;;;;;;;6.32;2.00;;;;;;;;;;4975847;28;20434;-82
2021/04/07 00:13:10;;;;;;;4.68;2.00;;;;;;;;;;4992987;28;20399;-76
2021/04/07 00:15:36;;;;;;;6.75;1.92;;;;;;;;;;4992876;28;20018;-81
2021/04/07 00:18:03;;;;;;;4.20;1.88;;;;;;;;;;4975405;28;20125;-78
2021/04/07 00:20:29;;;;;;;3.17;1.60;;;;;;;;;;4992785;28;20060;-72
2021/04/07 00:22:55;;;;;;;4.85;2.00;;;;;;;;;;4975716;28;20037;-83
2021/04/07 00:25:22;;;;;;;3.72;1.75;;;;;;;;;;4992877;28;20054;-81
2021/04/07 00:27:56;;;;;;;4.90;2.05;;;;;;;;;;4992846;28;20030;-77
2021/04/07 00:30:25;;;;;;;5.07;2.10;;;;;;;;;;4973431;28;20030;-85
2021/04/07 00:32:51;;;;;;;5.60;2.38;;;;;;;;;;4955806;28;20419;-73
2021/04/07 00:35:17;;;;;;;7.70;2.38;;;;;;;;;;4973149;28;20011;-76
2021/04/07 00:37:43;;;;;;;3.85;2.00;;;;;;;;;;4956451;28;20035;-86
2021/04/07 00:40:10;;;;;;;3.97;1.83;;;;;;;;;;4976705;28;20050;-78
2021/04/07 00:42:37;;;;;;;4.28;2.13;;;;;;;;;;4959567;28;20022;-83
2021/04/07 00:45:04;;;;;;;3.70;1.90;;;;;;;;;;4979058;28;20023;-74
2021/04/07 00:47:30;;;;;;;8.23;2.17;;;;;;;;;;4996298;28;20034;-76
2021/04/07 00:49:56;;;;;;;5.50;2.33;;;;;;;;;;4996022;28;20027;-78
2021/04/07 00:52:22;;;;;;;4.60;2.30;;;;;;;;;;4978355;28;20796;-83
2021/04/07 00:54:48;;;;;;;4.30;1.92;;;;;;;;;;4996066;28;20054;-81
2021/04/07 00:57:15;;;;;;;6.30;2.10;;;;;;;;;;4996398;28;20026;-79
2021/04/07 00:59:41;;;;;;;4.78;2.08;;;;;;;;;;4996200;28;20057;-80
2021/04/07 01:02:07;;;;;;;5.40;2.33;;;;;;;;;;4978351;28;20117;-79
2021/04/07 01:04:33;;;;;;;4.28;2.08;;;;;;;;;;4996944;28;20030;-90
2021/04/07 01:07:00;;;;;;;4.50;1.90;;;;;;;;;;4979052;28;20474;-82
2021/04/07 01:09:26;;;;;;;4.88;2.03;;;;;;;;;;4996032;28;20034;-80
2021/04/07 01:11:52;;;;;;;4.60;2.10;;;;;;;;;;4995872;28;20070;-81
2021/04/07 01:14:18;;;;;;;5.90;2.30;;;;;;;;;;4996021;28;20069;-80
2021/04/07 01:16:44;;;;;;;7.10;2.20;;;;;;;;;;4996269;28;20034;-84
2021/04/07 01:19:11;;;;;;;5.00;2.05;;;;;;;;;;4994679;28;20066;-87
2021/04/07 01:21:38;;;;;;;4.53;2.22;;;;;;;;;;4978365;28;20053;-71
2021/04/07 01:24:05;;;;;;;5.22;2.25;;;;;;;;;;4978623;28;20014;-85
2021/04/07 01:26:31;;;;;;;5.53;2.13;;;;;;;;;;4978757;28;20034;-78
2021/04/07 01:28:58;;;;;;;5.82;2.15;;;;;;;;;;4978826;28;20557;-87
2021/04/07 01:31:24;;;;;;;4.80;2.08;;;;;;;;;;4978831;28;20046;-72
2021/04/07 01:33:50;;;;;;;4.30;2.10;;;;;;;;;;4995548;28;20022;-73
2021/04/07 01:36:16;;;;;;;7.78;2.20;;;;;;;;;;4995407;28;20026;-73
2021/04/07 01:38:42;;;;;;;6.53;2.33;;;;;;;;;;4995692;28;20022;-73
2021/04/07 01:41:08;;;;;;;4.72;1.95;;;;;;;;;;4995728;28;20053;-73
2021/04/07 01:43:34;;;;;;;7.70;2.38;;;;;;;;;;4978166;28;20546;-73
2021/04/07 01:46:02;;;;;;;6.00;2.00;;;;;;;;;;4995494;28;20088;-73
2021/04/07 01:48:30;;;;;;;4.18;2.10;;;;;;;;;;4995518;28;20018;-73
2021/04/07 01:50:56;;;;;;;5.15;2.20;;;;;;;;;;4993953;28;20058;-73
2021/04/07 01:53:22;;;;;;;6.50;1.83;;;;;;;;;;4977770;28;20061;-73
2021/04/07 01:55:48;;;;;;;5.97;1.98;;;;;;;;;;4977878;28;20026;-73
2021/04/07 01:58:15;;;;;;;4.82;2.38;;;;;;;;;;4995050;28;20475;-74
2021/04/07 02:00:41;;;;;;;5.53;2.40;;;;;;;;;;4995198;28;20034;-73
2021/04/07 02:03:07;;;;;;;8.63;2.65;;;;;;;;;;4995302;28;20034;-73
2021/04/07 02:05:33;;;;;;;3.92;1.88;;;;;;;;;;4977822;28;20022;-73
2021/04/07 02:08:00;;;;;;;5.30;2.38;;;;;;;;;;4995111;28;20402;-73
2021/04/07 02:10:26;;;;;;;5.97;2.40;;;;;;;;;;4977371;28;20386;-73
2021/04/07 02:12:53;;;;;;;4.78;2.35;;;;;;;;;;4977378;28;20030;-73
2021/04/07 02:15:19;;;;;;;5.90;2.70;;;;;;;;;;4977427;28;20122;-73
2021/04/07 02:17:45;;;;;;;4.82;2.38;;;;;;;;;;4995087;28;20028;-73
2021/04/07 02:20:11;;;;;;;4.85;2.33;;;;;;;;;;4993863;28;20026;-73
2021/04/07 02:22:38;;;;;;;6.30;2.55;;;;;;;;;;4994825;28;20041;-73
2021/04/07 02:25:05;;;;;;;5.75;2.50;;;;;;;;;;4994832;28;20022;-73
2021/04/07 02:27:32;;;;;;;5.78;2.40;;;;;;;;;;4994564;28;20029;-73
2021/04/07 02:29:58;;;;;;;5.10;2.30;;;;;;;;;;4977124;28;20022;-73
2021/04/07 02:32:25;;;;;;;5.20;2.13;;;;;;;;;;4994657;28;20444;-72
2021/04/07 02:34:52;;;;;;;4.95;2.55;;;;;;;;;;4994728;28;20053;-73
2021/04/07 02:37:19;;;;;;;6.05;2.55;;;;;;;;;;4977135;28;20026;-73
2021/04/07 02:39:45;;;;;;;5.68;2.63;;;;;;;;;;4994611;28;20053;-73
2021/04/07 02:42:12;;;;;;;4.63;2.22;;;;;;;;;;4994368;28;20060;-72
2021/04/07 02:44:39;;;;;;;5.07;2.35;;;;;;;;;;4994242;28;20026;-73
2021/04/07 02:47:05;;;;;;;7.07;2.58;;;;;;;;;;4976818;28;20046;-73
2021/04/07 02:49:32;;;;;;;4.93;2.50;;;;;;;;;;4977016;28;20356;-73
2021/04/07 02:51:58;;;;;;;5.43;2.80;;;;;;;;;;4983347;28;20483;-73
2021/04/07 02:54:24;;;;;;;4.95;2.25;;;;;;;;;;4957263;28;20378;-73
2021/04/07 02:56:50;;;;;;;5.72;2.50;;;;;;;;;;4974844;28;20034;-73
2021/04/07 02:59:16;;;;;;;6.03;2.60;;;;;;;;;;4974873;28;20019;-73
2021/04/07 03:01:43;;;;;;;6.07;2.80;;;;;;;;;;4981738;28;20022;-73
2021/04/07 03:04:09;;;;;;;5.60;2.88;;;;;;;;;;4994062;28;20022;-73
2021/04/07 03:06:35;;;;;;;6.70;2.50;;;;;;;;;;4994042;28;20033;-73
2021/04/07 03:09:01;;;;;;;5.40;2.47;;;;;;;;;;4993916;28;20022;-73
2021/04/07 03:11:27;;;;;;;5.85;2.60;;;;;;;;;;4976455;28;20394;-73
2021/04/07 03:13:54;;;;;;;5.97;2.53;;;;;;;;;;4993715;28;20022;-73
2021/04/07 03:16:20;;;;;;;5.45;2.47;;;;;;;;;;4976453;28;20045;-73
2021/04/07 03:18:46;;;;;;;5.43;2.80;;;;;;;;;;4993597;28;20097;-73
2021/04/07 03:21:12;;;;;;;5.93;2.90;;;;;;;;;;4993454;28;20046;-73
2021/04/07 03:23:38;;;;;;;5.57;2.53;;;;;;;;;;4975751;28;20030;-73
2021/04/07 03:26:04;;;;;;;5.03;2.50;;;;;;;;;;4993454;28;20041;-73
2021/04/07 03:28:30;;;;;;;7.53;3.00;;;;;;;;;;4993580;28;20031;-73
2021/04/07 03:30:56;;;;;;;5.25;2.63;;;;;;;;;;4976088;28;20475;-73
2021/04/07 03:33:24;;;;;;;7.20;2.78;;;;;;;;;;4976258;28;20038;-73
2021/04/07 03:35:51;;;;;;;5.97;2.58;;;;;;;;;;4975982;28;20018;-73
2021/04/07 03:38:17;;;;;;;5.53;2.75;;;;;;;;;;4976204;28;20057;-72
2021/04/07 03:40:43;;;;;;;5.13;2.67;;;;;;;;;;4976052;28;20023;-73
2021/04/07 03:43:14;;;;;;;6.03;2.83;;;;;;;;;;4975994;28;20459;-73
2021/04/07 03:45:46;;;;;;;4.68;2.50;;;;;;;;;;4993382;28;20057;-73
2021/04/07 03:48:12;;;;;;;;;;;;;;;;;;4993575;28;20026;-73
2021/04/07 03:50:39;;;;;;;5.20;2.53;;;;;;;;;;4993110;28;20012;-73
2021/04/07 03:53:05;;;;;;;5.70;2.90;;;;;;;;;;4984239;28;20109;-73
2021/04/07 03:55:31;;;;;;;5.45;2.58;;;;;;;;;;4975891;28;20463;-73
2021/04/07 03:57:57;;;;;;;5.25;2.63;;;;;;;;;;4993040;28;20036;-73
2021/04/07 04:00:24;;;;;;;6.47;2.92;;;;;;;;;;4975737;28;20470;-73
2021/04/07 04:02:50;;;;;;;6.05;3.03;;;;;;;;;;4993240;28;20062;-73
2021/04/07 04:05:16;;;;;;;6.35;2.78;;;;;;;;;;4993264;28;20549;-73
2021/04/07 04:07:42;;;;;;;5.18;2.50;;;;;;;;;;4993245;28;20480;-73
2021/04/07 04:10:08;;;;;;;6.40;2.75;;;;;;;;;;4992920;28;20058;-73
2021/04/07 04:12:35;;;;;;;5.72;2.95;;;;;;;;;;4993614;28;20069;-73
2021/04/07 04:15:01;;;;;;;5.35;2.88;;;;;;;;;;4997200;28;20029;-73
2021/04/07 04:17:27;;;;;;;7.05;2.92;;;;;;;;;;4979585;28;20494;-73
2021/04/07 04:19:53;;;;;;;5.47;2.75;;;;;;;;;;4979325;28;20027;-73
2021/04/07 04:22:19;;;;;;;5.70;2.80;;;;;;;;;;4996790;28;20038;-73
2021/04/07 04:24:46;;;;;;;10.95;2.80;;;;;;;;;;4984464;28;20051;-73
2021/04/07 04:27:13;;;;;;;5.38;2.40;;;;;;;;;;4987524;28;20038;-73
2021/04/07 04:29:39;;;;;;;7.30;2.90;;;;;;;;;;4996875;28;20034;-72
2021/04/07 04:32:07;;;;;;;5.90;2.80;;;;;;;;;;4996609;28;20030;-73
2021/04/07 04:34:33;;;;;;;7.47;3.00;;;;;;;;;;4979452;28;20031;-73
2021/04/07 04:36:59;;;;;;;5.53;2.72;;;;;;;;;;4996691;28;20170;-73
2021/04/07 04:39:25;;;;;;;5.45;2.58;;;;;;;;;;4979390;28;20439;-73
2021/04/07 04:41:51;;;;;;;6.72;3.15;;;;;;;;;;4996758;28;20108;-73
2021/04/07 04:44:17;;;;;;;7.10;2.78;;;;;;;;;;4979128;28;20029;-73
2021/04/07 04:46:43;;;;;;;5.57;2.72;;;;;;;;;;4979208;28;20022;-73
2021/04/07 04:49:09;;;;;;;5.05;2.65;;;;;;;;;;4996524;28;20054;-73
2021/04/07 04:51:35;;;;;;;6.38;2.80;;;;;;;;;;4996375;28;20030;-73
2021/04/07 04:54:01;;;;;;;4.85;2.80;;;;;;;;;;4978789;28;20085;-73
2021/04/07 04:56:27;;;;;;;5.28;2.42;;;;;;;;;;4978895;28;20036;-73
2021/04/07 04:58:53;;;;;;;5.50;2.78;;;;;;;;;;4978671;28;20026;-73
2021/04/07 05:01:19;;;;;;;4.43;2.42;;;;;;;;;;4978669;28;20029;-73
2021/04/07 05:03:45;;;;;;;5.90;2.72;;;;;;;;;;4996134;28;20026;-72
2021/04/07 05:06:11;;;;;;;5.63;2.65;;;;;;;;;;4978681;28;20030;-73
2021/04/07 05:08:37;;;;;;;5.60;2.70;;;;;;;;;;4978810;28;20018;-73
2021/04/07 05:11:03;;;;;;;5.57;2.67;;;;;;;;;;4996142;28;20026;-73
2021/04/07 05:13:29;;;;;;;7.13;2.63;;;;;;;;;;4978544;28;20033;-73
2021/04/07 05:15:56;;;;;;;5.50;2.78;;;;;;;;;;4978411;28;20019;-72
2021/04/07 05:18:23;;;;;;;6.40;2.83;;;;;;;;;;4995711;28;20490;-73
2021/04/07 05:20:49;;;;;;;5.78;2.65;;;;;;;;;;4995955;28;20050;-73
2021/04/07 05:23:17;;;;;;;5.82;2.85;;;;;;;;;;4978619;28;20050;-73
2021/04/07 05:25:43;;;;;;;6.13;2.40;;;;;;;;;;4995827;28;20096;-73
2021/04/07 05:28:09;;;;;;;5.70;2.85;;;;;;;;;;4978356;28;20027;-73
2021/04/07 05:33:21;;;;;;;6.65;2.63;;;;;;;;;;4995841;28;20076;-73
2021/04/07 05:35:47;;;;;;;5.15;2.47;;;;;;;;;;4995755;28;20019;-72
2021/04/07 05:38:13;;;;;;;6.65;2.40;;;;;;;;;;4995203;28;20105;-73
2021/04/07 05:40:40;;;;;;;4.80;2.75;;;;;;;;;;4995341;28;20482;-73
2021/04/07 05:43:07;;;;;;;5.10;2.38;;;;;;;;;;4978093;28;20023;-73
2021/04/07 05:45:33;;;;;;;5.90;2.65;;;;;;;;;;4995427;28;20475;-72
2021/04/07 05:47:59;;;;;;;5.57;2.78;;;;;;;;;;4995548;28;20470;-73
2021/04/07 05:50:25;;;;;;;5.25;2.53;;;;;;;;;;4978006;28;20486;-72
2021/04/07 05:52:52;;;;;;;6.95;2.40;;;;;;;;;;4977574;28;20458;-73
2021/04/07 05:55:18;;;;;;;4.50;2.33;;;;;;;;;;4995199;28;20018;-73
2021/04/07 05:57:44;;;;;;;6.63;2.40;;;;;;;;;;4995210;28;20030;-73
2021/04/07 06:00:11;;;;;;;6.90;2.45;;;;;;;;;;4995024;28;20057;-73
2021/04/07 06:02:37;;;;;;;6.07;2.83;;;;;;;;;;4977586;28;20057;-74
2021/04/07 06:05:04;;;;;;;4.63;2.35;;;;;;;;;;4977503;28;20022;-73
2021/04/07 06:07:30;;;;;;;7.35;2.50;;;;;;;;;;4994751;28;20014;-74
2021/04/07 06:09:56;;;;;;;7.03;2.58;;;;;;;;;;4994381;28;20022;-73
2021/04/07 06:12:22;;;;;;;5.28;2.40;;;;;;;;;;4977346;28;20129;-74
2021/04/07 06:14:48;;;;;;;4.80;2.35;;;;;;;;;;4994814;28;20018;-74
2021/04/07 06:17:14;;;;;;;6.82;2.67;;;;;;;;;;4994715;28;20026;-74
2021/04/07 06:19:40;;;;;;;8.40;2.60;;;;;;;;;;4994044;28;20471;-74
2021/04/07 06:22:06;;;;;;;6.35;2.80;;;;;;;;;;4994462;28;20345;-74
2021/04/07 06:24:32;;;;;;;6.30;2.10;;;;;;;;;;4973613;28;20043;-74
2021/04/07 06:26:58;;;;;;;7.70;2.53;;;;;;;;;;4992559;28;20101;-74
2021/04/07 06:29:24;;;;;;;7.55;2.65;;;;;;;;;;4994546;28;20110;-74
2021/04/07 06:31:50;;;;;;;5.13;2.17;;;;;;;;;;4994463;28;20038;-74
2021/04/07 06:34:16;;;;;;;6.60;2.22;;;;;;;;;;4994428;28;20029;-74
2021/04/07 06:36:42;;;;;;;5.10;2.22;;;;;;;;;;4976646;28;20478;-74
2021/04/07 06:39:08;;;;;;;4.85;2.30;;;;;;;;;;4994466;28;20394;-74
2021/04/07 06:41:35;;;;;;;5.20;2.53;;;;;;;;;;4994517;28;20501;-74
2021/04/07 06:44:01;;;;;;;5.75;2.70;;;;;;;;;;4994175;28;20105;-74
2021/04/07 06:46:28;;;;;;;5.28;2.72;;;;;;;;;;4976957;28;20065;-75
2021/04/07 06:48:54;;;;;;;4.40;2.40;;;;;;;;;;4994150;28;20030;-74
2021/04/07 06:51:21;;;;;;;5.82;2.70;;;;;;;;;;4994207;28;20072;-74
2021/04/07 06:53:51;;;;;;;4.75;2.53;;;;;;;;;;4977185;28;20387;-75
2021/04/07 06:56:18;;;;;;;4.72;2.50;;;;;;;;;;4976675;28;20031;-74
2021/04/07 06:58:45;;;;;;;5.68;2.30;;;;;;;;;;4976683;28;20406;-74
2021/04/07 07:01:11;;;;;;;9.57;2.70;;;;;;;;;;4990401;28;20125;-75
2021/04/07 07:03:37;;;;;;;4.20;2.20;;;;;;;;;;4985203;28;20023;-76
2021/04/07 07:06:04;;;;;;;5.43;2.50;;;;;;;;;;4973113;28;20121;-76
2021/04/07 07:08:31;;;;;;;5.68;2.22;;;;;;;;;;4986043;28;20018;-76
2021/04/07 07:11:08;;;;;;;3.97;2.00;;;;;;;;;;4975328;28;20152;-76
2021/04/07 07:13:35;;;;;;;4.15;2.00;;;;;;;;;;4992601;28;20026;-76
2021/04/07 07:16:01;;;;;;;5.75;2.42;;;;;;;;;;4975033;28;20038;-76
2021/04/07 07:18:28;;;;;;;4.13;2.20;;;;;;;;;;4975297;28;20022;-75
2021/04/07 07:20:55;;;;;;;5.47;2.28;;;;;;;;;;4978048;28;20514;-76
2021/04/07 07:23:31;;;;;;;5.35;2.10;;;;;;;;;;4973605;28;20023;-75
2021/04/07 07:26:01;;;;;;;6.38;2.47;;;;;;;;;;4992057;28;20046;-77
2021/04/07 07:28:28;;;;;;;7.43;2.83;;;;;;;;;;4991545;28;20116;-76
2021/04/07 07:30:55;;;;;;;7.65;2.47;;;;;;;;;;4992795;28;20022;-75
2021/04/07 07:33:22;;;;;;;4.80;2.05;;;;;;;;;;4974951;28;20145;-77
2021/04/07 07:35:49;;;;;;;5.53;1.95;;;;;;;;;;4975277;28;20076;-79
2021/04/07 07:38:25;;;;;;;5.40;1.90;;;;;;;;;;4974783;28;20030;-75
2021/04/07 07:41:01;;;;;;;6.43;2.33;;;;;;;;;;4992387;28;20061;-74
2021/04/07 07:43:27;;;;;;;6.45;2.35;;;;;;;;;;4992069;28;20023;-76
2021/04/07 07:45:53;;;;;;;6.10;2.50;;;;;;;;;;4992244;28;20072;-74
2021/04/07 07:48:21;;;;;;;4.25;2.25;;;;;;;;;;4991303;28;20030;-74
2021/04/07 07:50:48;;;;;;;4.28;2.05;;;;;;;;;;4974769;28;20042;-73
2021/04/07 07:53:14;;;;;;;6.05;2.25;;;;;;;;;;4992331;28;20076;-74
2021/04/07 07:55:40;;;;;;;4.22;2.10;;;;;;;;;;4973965;28;20123;-77
2021/04/07 07:58:07;;;;;;;3.90;2.05;;;;;;;;;;4970897;28;20030;-74
2021/04/07 08:00:33;;;;;;;7.07;1.90;;;;;;;;;;4972076;28;20158;-77
2021/04/07 08:03:11;;;;;;;4.72;2.03;;;;;;;;;;4972024;28;20102;-73
2021/04/07 08:05:38;;;;;;;6.15;2.25;;;;;;;;;;4971096;28;20038;-74
2021/04/07 08:08:04;;;;;;;19.98;2.38;;;;;;;;;;4982632;28;20505;-75
2021/04/07 08:10:32;;;;;;;3.55;1.77;;;;;;;;;;4992237;28;20041;-75
2021/04/07 08:13:00;;;;;;;5.22;2.28;;;;;;;;;;4992070;28;20097;-74
2021/04/07 08:15:27;;;;;;;5.60;2.20;;;;;;;;;;4974582;28;20490;-75
2021/04/07 08:17:53;;;;;;;3.83;1.80;;;;;;;;;;4991926;28;20042;-76
2021/04/07 08:20:20;;;;;;;3.65;1.80;;;;;;;;;;4974267;28;20026;-75
2021/04/07 08:22:46;;;;;;;4.72;2.17;;;;;;;;;;4974521;28;20030;-75
2021/04/07 08:25:14;;;;;;;4.95;2.15;;;;;;;;;;4973687;28;20058;-76
2021/04/07 08:27:42;;;;;;;3.83;1.75;;;;;;;;;;4991892;28;20022;-75
2021/04/07 08:30:08;;;;;;;6.18;1.80;;;;;;;;;;4991663;28;20021;-76
2021/04/07 08:32:36;;;;;;;4.57;2.22;;;;;;;;;;4974798;28;20088;-75
2021/04/07 08:35:04;;;;;;;4.68;2.03;;;;;;;;;;4974386;28;20026;-75
2021/04/07 08:37:33;;;;;;;3.72;1.63;;;;;;;;;;4992110;28;20106;-77
2021/04/07 08:40:12;;;;;;;3.33;1.88;;;;;;;;;;4974192;28;20062;-75
2021/04/07 08:42:40;;;;;;;4.18;1.77;;;;;;;;;;4974298;28;20019;-79
2021/04/07 08:45:08;;;;;;;6.15;1.83;;;;;;;;;;4991761;28;20491;-74
2021/04/07 08:47:43;;;;;;;4.05;1.67;;;;;;;;;;4973619;28;20058;-73
2021/04/07 08:50:10;;;;;;;3.85;1.85;;;;;;;;;;4973523;28;20034;-73
2021/04/07 08:52:46;;;;;;;3.97;1.40;;;;;;;;;;4990987;28;20507;-74
2021/04/07 08:55:32;;;;;;;3.45;1.50;;;;;;;;;;4973502;28;20030;-76
2021/04/07 08:58:06;;;;;;;6.90;1.60;;;;;;;;;;4955365;28;20093;-74
2021/04/07 09:00:33;;;;;;;2.30;1.30;;;;;;;;;;4993935;28;20022;-80
2021/04/07 09:03:09;;;;;;;2.88;1.50;;;;;;;;;;4994895;28;20475;-73
2021/04/07 09:05:36;;;;;;;3.72;1.33;;;;;;;;;;4977840;28;20691;-77
2021/04/07 09:08:03;;;;;;;3.33;1.50;;;;;;;;;;4994617;28;20023;-75
2021/04/07 09:10:43;;;;;;;2.85;1.20;;;;;;;;;;4994873;28;20014;-75
2021/04/07 09:13:10;;;;;;;2.50;1.20;;;;;;;;;;4977124;28;20045;-74
2021/04/07 09:16:06;;;;;;;3.42;1.48;;;;;;;;;;4994615;28;20014;-73
2021/04/07 09:18:50;;;;;;;4.57;1.83;;;;;;;;;;4982136;28;20069;-72
2021/04/07 09:21:16;;;;;;;2.85;1.30;;;;;;;;;;4995149;28;20050;-81
2021/04/07 09:23:44;;;;;;;4.78;1.73;;;;;;;;;;4979626;28;20030;-78
2021/04/07 09:26:11;;;;;;;3.50;1.65;;;;;;;;;;4995983;28;20057;-80
2021/04/07 09:28:39;;;;;;;3.22;1.38;;;;;;;;;;4996604;28;20019;-84
2021/04/07 09:31:08;;;;;;;4.30;1.38;;;;;;;;;;4994620;28;20023;-75
2021/04/07 09:33:38;;;;;;;3.33;1.30;;;;;;;;;;4976377;28;20034;-77
2021/04/07 09:36:05;;;;;;;3.50;1.58;;;;;;;;;;4977071;28;20030;-76
2021/04/07 09:38:31;;;;;;;3.47;1.33;;;;;;;;;;5005946;28;20023;-73
2021/04/07 09:41:22;;;;;;;2.63;1.30;;;;;;;;;;4976927;28;20022;-73
2021/04/07 09:43:49;;;;;;;4.43;1.60;;;;;;;;;;4985588;28;20061;-74
2021/04/07 09:46:15;;;;;;;2.83;1.20;;;;;;;;;;4996015;28;20608;-81
2021/04/07 09:48:46;;;;;;;3.28;1.17;;;;;;;;;;5013923;28;20022;-73
2021/04/07 09:51:20;;;;;;;2.80;1.23;;;;;;;;;;4993706;28;20027;-73
2021/04/07 09:53:46;;;;;;;4.03;1.40;;;;;;;;;;4976287;28;20038;-71
2021/04/07 09:56:13;;;;;;;3.13;1.00;;;;;;;;;;4981795;28;20019;-71
2021/04/07 09:58:42;;;;;;;4.00;1.40;;;;;;;;;;4994153;28;20050;-74
2021/04/07 10:01:09;;;;;;;3.00;1.20;;;;;;;;;;4994125;28;20030;-76
2021/04/07 10:03:35;;;;;;;3.67;1.30;;;;;;;;;;4976545;28;20030;-74
2021/04/07 10:06:01;;;;;;;1.40;0.80;;;;;;;;;;4976438;28;20029;-75
2021/04/07 10:08:27;;;;;;;2.45;1.02;;;;;;;;;;4994061;28;20026;-74
2021/04/07 10:10:54;;;;;;;1.95;0.95;;;;;;;;;;4975582;28;20077;-74
2021/04/07 10:13:20;;;;;;;3.67;1.20;;;;;;;;;;4994107;28;20105;-79
2021/04/07 10:15:46;;;;;;;3.33;1.20;;;;;;;;;;4993904;28;20478;-72
2021/04/07 10:18:12;;;;;;;2.72;1.20;;;;;;;;;;4993720;28;20049;-76
2021/04/07 10:20:39;;;;;;;2.30;1.10;;;;;;;;;;4975192;28;20120;-74
2021/04/07 10:23:10;;;;;;;3.60;1.20;;;;;;;;;;4976794;28;20086;-73
2021/04/07 10:25:36;;;;;;;3.17;1.30;;;;;;;;;;4974063;28;20115;-74
2021/04/07 10:28:03;;;;;;;3.03;1.35;;;;;;;;;;4974152;28;20026;-74
2021/04/07 10:30:35;;;;;;;3.05;1.10;;;;;;;;;;4974337;28;20439;-74
2021/04/07 10:33:03;;;;;;;1.85;0.90;;;;;;;;;;4974267;28;20034;-75
2021/04/07 10:35:32;;;;;;;2.67;0.88;;;;;;;;;;4974082;28;20023;-74
2021/04/07 10:38:07;;;;;;;2.63;1.00;;;;;;;;;;4973501;28;20038;-74
2021/04/07 10:40:34;;;;;;;3.25;1.10;;;;;;;;;;4979755;28;20181;-74
2021/04/07 10:43:17;;;;;;;2.10;1.00;;;;;;;;;;4993517;28;20049;-74
2021/04/07 10:45:43;;;;;;;3.53;1.60;;;;;;;;;;4975817;28;20064;-72
2021/04/07 10:48:09;;;;;;;15.00;1.20;;;;;;;;;;4993049;28;20022;-77
2021/04/07 10:50:38;;;;;;;3.78;1.20;;;;;;;;;;4993197;28;20034;-82
2021/04/07 10:53:04;;;;;;;2.90;1.10;;;;;;;;;;4975568;28;20038;-77
2021/04/07 10:55:30;;;;;;;23.15;1.95;;;;;;;;;;4992277;28;20056;-73
2021/04/07 10:57:58;;;;;;;4.88;1.30;;;;;;;;;;4992842;28;20031;-76
2021/04/07 11:00:24;;;;;;;3.53;1.25;;;;;;;;;;4993429;28;20022;-77
2021/04/07 11:02:52;;;;;;;4.30;1.10;;;;;;;;;;4975577;28;20033;-78
2021/04/07 11:05:19;;;;;;;3.33;1.33;;;;;;;;;;4993138;28;20029;-79
2021/04/07 11:07:47;;;;;;;6.72;1.33;;;;;;;;;;4993052;28;20237;-75
2021/04/07 11:10:14;;;;;;;21.25;1.52;;;;;;;;;;4975345;28;20038;-80
2021/04/07 11:12:44;;;;;;;4.45;1.10;;;;;;;;;;4993009;28;20121;-74
2021/04/07 11:15:13;;;;;;;9.43;1.88;;;;;;;;;;4992748;28;20030;-78
2021/04/07 11:17:53;;;;;;;5.32;1.02;;;;;;;;;;4975272;28;20491;-76
2021/04/07 11:20:19;;;;;;;3.75;1.13;;;;;;;;;;4975120;28;20022;-77
2021/04/07 11:22:45;;;;;;;7.18;1.40;;;;;;;;;;4992625;28;20502;-74
2021/04/07 11:25:12;;;;;;;7.03;0.90;;;;;;;;;;4975449;28;20118;-75
2021/04/07 11:27:38;;;;;;;4.82;1.23;;;;;;;;;;4992554;28;20364;-74
2021/04/07 11:30:05;;;;;;;3.05;1.10;;;;;;;;;;4974412;28;20023;-76
2021/04/07 11:32:35;;;;;;;5.88;1.00;;;;;;;;;;4992800;28;20817;-81
2021/04/07 11:45:25;;;;;;;4.50;0.95;;;;;;;;;;4992593;28;20037;-81
2021/04/07 11:47:51;;;;;;;4.97;1.25;;;;;;;;;;4992184;28;20033;-80
2021/04/07 11:50:18;;;;;;;2.63;1.08;;;;;;;;;;4974818;28;20603;-81
2021/04/07 11:52:44;;;;;;;4.85;1.00;;;;;;;;;;4975028;28;20034;-75
2021/04/07 11:55:11;;;;;;;3.50;1.35;;;;;;;;;;4974698;28;20113;-76
2021/04/07 11:57:37;;;;;;;3.05;0.88;;;;;;;;;;4992072;28;20037;-76
2021/04/07 12:00:04;;;;;;;2.72;1.00;;;;;;;;;;4974527;28;20054;-74
2021/04/07 12:02:32;;;;;;;3.25;1.40;;;;;;;;;;4992143;28;20495;-81
2021/04/07 12:04:58;;;;;;;3.25;0.90;;;;;;;;;;4974805;28;20489;-78
2021/04/07 12:07:24;;;;;;;3.60;1.00;;;;;;;;;;4974985;28;20410;-79
2021/04/07 12:09:50;;;;;;;4.53;1.23;;;;;;;;;;4991835;28;20018;-75
2021/04/07 12:12:16;;;;;;;5.88;1.50;;;;;;;;;;4991746;28;20418;-81
2021/04/07 12:14:42;;;;;;;7.65;1.13;;;;;;;;;;4974927;28;20100;-81
2021/04/07 12:17:08;;;;;;;6.18;1.15;;;;;;;;;;4974721;28;20030;-75
2021/04/07 12:19:35;;;;;;;3.63;1.02;;;;;;;;;;4974708;28;20471;-77
2021/04/07 12:22:01;;;;;;;3.67;1.13;;;;;;;;;;4991562;28;20058;-75
2021/04/07 12:24:28;;;;;;;14.82;1.35;;;;;;;;;;4974391;28;20360;-75
2021/04/07 12:26:55;;;;;;;6.28;1.15;;;;;;;;;;4974542;28;20022;-76
2021/04/07 12:29:21;;;;;;;3.90;1.00;;;;;;;;;;4991661;28;20098;-77
2021/04/07 12:31:48;;;;;;;3.53;1.10;;;;;;;;;;4992052;28;20034;-75
2021/04/07 12:34:14;;;;;;;5.35;1.00;;;;;;;;;;4993600;28;20033;-82
2021/04/07 12:36:40;;;;;;;3.92;1.25;;;;;;;;;;4978956;28;20022;-79
2021/04/07 12:39:06;;;;;;;5.10;1.20;;;;;;;;;;4995563;28;20026;-75
2021/04/07 12:43:59;;;;;;;3.97;1.40;;;;;;;;;;4995464;28;20534;-77
2021/04/07 12:46:26;;;;;;;2.88;0.93;;;;;;;;;;4977301;28;20122;-78
2021/04/07 12:48:52;;;;;;;3.53;1.20;;;;;;;;;;4977512;28;20582;-77
2021/04/07 12:51:22;;;;;;;3.33;1.00;;;;;;;;;;4992231;28;20033;-78
2021/04/07 12:53:49;;;;;;;4.78;1.33;;;;;;;;;;4978329;28;20121;-76
2021/04/07 12:56:18;;;;;;;12.90;1.67;;;;;;;;;;4994824;28;20133;-76
2021/04/07 12:58:45;;;;;;;2.78;1.00;;;;;;;;;;4978379;28;20027;-75
2021/04/07 13:01:11;;;;;;;6.22;1.33;;;;;;;;;;4976092;28;20037;-78
2021/04/07 13:03:37;;;;;;;11.80;1.33;;;;;;;;;;4983999;28;20015;-77
2021/04/07 13:06:03;;;;;;;9.25;1.30;;;;;;;;;;4977726;28;20026;-79
2021/04/07 13:08:29;;;;;;;5.47;1.50;;;;;;;;;;4995201;28;20026;-80
2021/04/07 13:10:55;;;;;;;4.32;1.13;;;;;;;;;;4977594;28;20030;-77
2021/04/07 13:13:22;;;;;;;7.25;1.38;;;;;;;;;;4977500;28;20561;-80
2021/04/07 13:15:48;;;;;;;6.50;1.45;;;;;;;;;;4977650;28;20382;-79
2021/04/07 13:18:15;;;;;;;4.25;1.23;;;;;;;;;;4977696;28;20037;-80
2021/04/07 13:20:41;;;;;;;3.20;1.15;;;;;;;;;;4995268;28;20606;-78
2021/04/07 13:23:07;;;;;;;4.97;1.30;;;;;;;;;;4995464;28;20026;-77
2021/04/07 13:25:33;;;;;;;3.95;1.17;;;;;;;;;;4995185;28;20033;-79
2021/04/07 13:27:59;;;;;;;4.35;1.17;;;;;;;;;;4992938;28;20089;-78
2021/04/07 13:30:32;;;;;;;2.88;1.20;;;;;;;;;;4979197;28;20025;-78
2021/04/07 13:40:34;;;;;;;4.38;1.42;;;;;;;;;;4994714;28;20031;-79
2021/04/07 13:43:01;;;;;;;3.67;1.40;;;;;;;;;;4977367;28;20504;-77
2021/04/07 13:45:36;;;;;;;3.25;1.33;;;;;;;;;;4993524;28;20554;-76
2021/04/07 13:48:48;;;;;;;5.82;1.40;;;;;;;;;;4994619;28;20030;-80
2021/04/07 13:50:49;;;;;;;3.67;1.30;;;;;;;;;;4986313;28;20111;-81
2021/04/07 13:53:18;;;;;;;3.70;1.15;;;;;;;;;;4976665;28;20078;-77
2021/04/07 13:55:49;;;;;;;2.25;1.20;;;;;;;;;;4994604;28;20097;-80
2021/04/07 13:58:15;;;;;;;2.20;1.20;;;;;;;;;;4994345;28;20026;-79
2021/04/07 14:00:42;;;;;;;2.08;1.00;;;;;;;;;;4977106;28;20023;-80
2021/04/07 14:03:08;;;;;;;4.55;1.20;;;;;;;;;;4976716;28;20045;-79
2021/04/07 14:05:34;;;;;;;4.63;1.73;;;;;;;;;;4976582;28;20494;-79
2021/04/07 14:08:01;;;;;;;2.85;1.10;;;;;;;;;;4976887;28;20224;-79
2021/04/07 14:10:27;;;;;;;3.72;1.35;;;;;;;;;;4985635;28;20022;-79
2021/04/07 14:12:59;;;;;;;5.03;1.27;;;;;;;;;;5003628;28;20037;-78
2021/04/07 14:15:26;;;;;;;3.10;1.40;;;;;;;;;;4996293;28;20026;-78
2021/04/07 14:17:52;;;;;;;2.13;1.10;;;;;;;;;;5013641;28;20030;-78
2021/04/07 14:20:18;;;;;;;6.38;1.30;;;;;;;;;;4980024;28;20085;-77
2021/04/07 14:22:44;;;;;;;2.28;1.10;;;;;;;;;;4976283;28;20153;-76
2021/04/07 14:25:12;;;;;;;2.05;1.00;;;;;;;;;;4994119;28;20031;-79
2021/04/07 14:27:39;;;;;;;3.78;1.33;;;;;;;;;;4976358;28;20108;-79
2021/04/07 14:30:06;;;;;;;2.53;1.20;;;;;;;;;;4994276;28;20491;-80
2021/04/07 14:32:32;;;;;;;2.63;1.05;;;;;;;;;;4976373;28;20038;-79
2021/04/07 14:34:58;;;;;;;2.78;1.08;;;;;;;;;;4994208;28;20022;-80
2021/04/07 14:37:24;;;;;;;5.22;1.17;;;;;;;;;;4976793;28;20045;-80
2021/04/07 14:39:51;;;;;;;2.53;1.00;;;;;;;;;;4994387;28;20030;-81
2021/04/07 14:42:17;;;;;;;3.47;0.95;;;;;;;;;;4994474;28;20048;-80
2021/04/07 14:44:43;;;;;;;2.25;0.80;;;;;;;;;;4993974;28;20034;-80
2021/04/07 14:47:09;;;;;;;3.30;1.00;;;;;;;;;;4993803;28;20030;-79
2021/04/07 14:49:35;;;;;;;2.33;0.85;;;;;;;;;;4993797;28;20023;-79
2021/04/07 14:52:08;;;;;;;3.33;1.00;;;;;;;;;;4976308;28;20034;-80
2021/04/07 14:55:07;;;;;;;3.42;1.23;;;;;;;;;;4976708;28;20027;-79
2021/04/07 14:57:26;;;;;;;2.25;0.88;;;;;;;;;;4990385;28;20077;-78
2021/04/07 14:59:52;;;;;;;4.40;1.20;;;;;;;;;;4993949;28;20471;-80
2021/04/07 15:02:18;;;;;;;2.97;1.10;;;;;;;;;;4976841;28;20018;-79
2021/04/07 15:04:44;;;;;;;3.15;1.25;;;;;;;;;;4994498;28;20061;-81
2021/04/07 15:07:10;;;;;;;2.20;1.00;;;;;;;;;;4976812;28;20041;-81